Terminal Aerodrome Forecast
Issued by NWS

Home | Current Version | Previous Version | Text Only | Print | Product List | Glossary On
Versions: 1 2 3 4 5 6 7 8 9 10 11 12 13
773
FTAK31 PAJN 241128
TAFAGY
TAF
PAGY 241128Z 2412/2512 20012KT P6SM VCSH BKN050 OVC080
      TEMPO 2412/2416 -SHRA OVC045
     FM242200 21020KT P6SM SCT080
     FM250300 21020KT P6SM BKN050 OVC080
     FM250600 21010KT P6SM VCSH BKN050 OVC080
      AMD LTD TO CLD VIS AND WIND=

USA.gov is the U.S. government's official web portal to all federal, state and local government web resources and services.